Time;durP1;ratioP1;P1;durP2;ratioP2;P2;SDS_P1;SDS_P2;PMS_P1;PMS_P2;Temp;Humidity;BMP_temperature;BMP_pressure;BME280_temperature;BME280_humidity;BME280_pressure;Samples;Min_cycle;Max_cycle;Signal;HPM_P1;HPM_P2
2022/11/10 00:01:40;;;;;;;2.50;1.27;;;11.70;99.90;;;;;;5220492;28;20199;-49
2022/11/10 00:04:10;;;;;;;1.33;1.33;;;11.60;99.90;;;;;;5202543;28;20206;-48
2022/11/10 00:06:41;;;;;;;1.60;1.50;;;11.60;99.90;;;;;;5200617;28;20183;-50
2022/11/10 00:09:12;;;;;;;4.87;2.07;;;11.50;99.90;;;;;;5208811;28;20187;-49
2022/11/10 00:11:43;;;;;;;3.10;1.83;;;11.50;99.90;;;;;;5217913;28;20666;-48
2022/11/10 00:17:05;;;;;;;6.20;1.70;;;11.40;99.90;;;;;;5218944;28;20785;-50
2022/11/10 00:19:36;;;;;;;2.83;1.20;;;11.40;99.90;;;;;;5204823;28;20481;-48
2022/11/10 00:22:06;;;;;;;1.47;1.27;;;11.30;99.90;;;;;;5221667;28;20453;-48
2022/11/10 00:24:37;;;;;;;1.53;1.37;;;11.30;99.90;;;;;;5215790;28;20203;-48
2022/11/10 00:27:07;;;;;;;1.47;1.47;;;11.30;99.90;;;;;;5207126;28;20289;-51
2022/11/10 00:29:38;;;;;;;2.53;1.07;;;11.30;99.90;;;;;;5216915;28;20175;-49
2022/11/10 00:32:09;;;;;;;5.73;1.87;;;11.40;99.90;;;;;;5206863;28;20270;-50
2022/11/10 00:34:39;;;;;;;6.30;1.23;;;11.50;99.90;;;;;;5204274;28;20302;-50
2022/11/10 00:37:10;;;;;;;3.70;1.63;;;11.60;99.90;;;;;;5207889;28;20183;-49
2022/11/10 00:39:40;;;;;;;1.70;1.60;;;11.60;99.90;;;;;;5208707;28;20282;-49
2022/11/10 00:42:11;;;;;;;5.80;1.80;;;11.60;99.90;;;;;;5219403;28;20182;-49
2022/11/10 00:44:42;;;;;;;4.30;1.37;;;11.70;99.90;;;;;;5204019;28;20302;-48
2022/11/10 00:47:13;;;;;;;5.90;1.30;;;11.80;99.90;;;;;;5214110;28;20547;-48
2022/11/10 00:49:43;;;;;;;8.73;1.43;;;11.80;99.90;;;;;;5208573;28;20186;-49
2022/11/10 00:52:14;;;;;;;5.03;1.63;;;11.90;99.90;;;;;;5218011;28;20418;-48
2022/11/10 00:54:44;;;;;;;1.30;1.20;;;12.00;99.90;;;;;;5219255;28;20262;-49
2022/11/10 00:57:15;;;;;;;2.30;1.90;;;12.10;99.90;;;;;;5217274;28;20234;-50
2022/11/10 00:59:46;;;;;;;4.30;1.90;;;12.10;99.90;;;;;;5228278;28;20281;-49
2022/11/10 01:02:16;;;;;;;3.70;1.60;;;12.30;99.90;;;;;;5203652;28;20194;-48
2022/11/10 01:04:47;;;;;;;1.53;1.27;;;12.20;99.90;;;;;;5207381;28;20269;-49
2022/11/10 01:07:17;;;;;;;2.40;1.47;;;12.30;99.90;;;;;;5209249;28;20206;-50
2022/11/10 01:09:48;;;;;;;2.03;1.27;;;12.30;99.90;;;;;;5217945;28;20221;-48
2022/11/10 01:12:19;;;;;;;6.30;2.47;;;12.30;99.90;;;;;;5207600;28;20197;-50
2022/11/10 01:14:49;;;;;;;2.97;1.80;;;12.30;99.90;;;;;;5209361;28;20762;-49
2022/11/10 01:17:20;;;;;;;4.90;1.63;;;12.30;99.90;;;;;;5206872;28;20186;-49
2022/11/10 01:19:50;;;;;;;11.53;1.90;;;12.30;99.90;;;;;;5224448;28;20179;-49
2022/11/10 01:22:21;;;;;;;6.53;2.33;;;12.30;99.90;;;;;;5227748;28;20207;-48
2022/11/10 01:24:52;;;;;;;6.40;1.70;;;12.30;99.90;;;;;;5222140;28;20217;-51
2022/11/10 01:27:22;;;;;;;1.37;1.27;;;12.20;99.90;;;;;;5220297;28;20195;-48
2022/11/10 01:29:53;;;;;;;3.53;1.10;;;12.20;99.90;;;;;;5219152;28;20204;-49
2022/11/10 01:32:23;;;;;;;1.70;1.60;;;12.20;99.90;;;;;;5222393;28;20187;-49
2022/11/10 01:34:56;;;;;;;3.00;1.80;;;12.20;99.90;;;;;;5207196;28;20306;-49
2022/11/10 01:37:26;;;;;;;6.70;1.63;;;12.20;99.90;;;;;;5202154;28;20175;-50
2022/11/10 01:39:57;;;;;;;9.77;1.80;;;12.20;99.90;;;;;;5227636;28;20925;-51
2022/11/10 01:42:47;;;;;;;2.93;1.27;;;12.10;99.90;;;;;;5227517;28;20183;-49
2022/11/10 01:45:24;;;;;;;4.83;1.53;;;12.20;99.90;;;;;;5209129;28;20214;-51
2022/11/10 01:47:58;;;;;;;4.13;1.20;;;12.20;99.90;;;;;;5224002;28;20567;-51
2022/11/10 01:50:33;;;;;;;5.90;1.80;;;12.20;99.90;;;;;;5225361;28;20468;-50
2022/11/10 01:53:08;;;;;;;2.00;1.50;;;12.20;99.90;;;;;;5206439;28;20510;-49
2022/11/10 01:55:44;;;;;;;2.43;1.70;;;12.20;99.90;;;;;;5222221;28;20478;-49
2022/11/10 01:58:19;;;;;;;6.07;1.70;;;12.20;99.90;;;;;;5224285;28;21204;-50
2022/11/10 02:00:50;;;;;;;2.00;1.90;;;12.10;99.90;;;;;;5218151;28;20433;-49
2022/11/10 02:03:48;;;;;;;8.43;2.37;;;12.20;99.90;;;;;;5217433;28;20449;-48
2022/11/10 02:06:22;;;;;;;0.70;0.70;;;12.20;99.90;;;;;;5215528;28;20434;-50
2022/11/10 02:08:55;;;;;;;3.47;1.53;;;12.20;99.90;;;;;;5228549;28;20490;-48
2022/11/10 02:11:27;;;;;;;3.50;1.03;;;12.20;99.90;;;;;;5191069;28;20441;-48
2022/11/10 02:13:59;;;;;;;1.00;1.00;;;12.10;99.90;;;;;;5223212;28;20951;-50
2022/11/10 02:16:30;;;;;;;3.27;0.80;;;12.10;99.90;;;;;;5226651;28;20508;-49
2022/11/10 02:19:16;;;;;;;1.10;1.00;;;12.10;99.90;;;;;;5227247;28;20496;-49
2022/11/10 02:21:47;;;;;;;2.90;1.20;;;12.00;99.90;;;;;;5226303;28;20918;-48
2022/11/10 02:24:18;;;;;;;5.70;0.93;;;12.00;99.90;;;;;;5211839;28;20457;-47
2022/11/10 02:26:53;;;;;;;3.77;2.10;;;12.00;99.90;;;;;;5215797;28;20194;-49
2022/11/10 02:29:24;;;;;;;10.97;1.80;;;12.00;99.90;;;;;;5206283;28;20639;-49
2022/11/10 02:31:55;;;;;;;1.30;1.30;;;12.10;99.90;;;;;;5223109;28;20794;-49
2022/11/10 02:34:26;;;;;;;4.43;1.13;;;12.00;99.90;;;;;;5226345;28;20469;-50
2022/11/10 02:36:56;;;;;;;5.40;1.03;;;12.10;99.90;;;;;;5220199;28;20654;-48
2022/11/10 02:39:27;;;;;;;5.23;1.33;;;12.00;99.90;;;;;;5216863;28;20236;-48
2022/11/10 02:41:57;;;;;;;0.70;0.70;;;12.10;99.90;;;;;;5221582;28;20191;-50
2022/11/10 02:44:28;;;;;;;1.70;1.20;;;12.10;99.90;;;;;;5205326;28;20324;-48
2022/11/10 02:46:59;;;;;;;1.73;0.93;;;12.10;99.90;;;;;;5189903;28;20198;-48
2022/11/10 02:49:29;;;;;;;4.00;1.30;;;12.10;99.90;;;;;;5205254;28;20183;-48
2022/11/10 02:52:00;;;;;;;3.47;1.80;;;12.10;99.90;;;;;;5209088;28;20194;-48
2022/11/10 02:54:30;;;;;;;1.80;1.13;;;12.10;99.90;;;;;;5209163;28;20207;-47
2022/11/10 02:57:01;;;;;;;2.30;1.17;;;12.10;99.90;;;;;;5214854;28;20203;-48
2022/11/10 02:59:32;;;;;;;2.40;1.63;;;12.10;99.90;;;;;;5209299;28;20635;-50
2022/11/10 03:02:02;;;;;;;1.10;0.83;;;12.10;99.90;;;;;;5224262;28;20191;-49
2022/11/10 03:04:33;;;;;;;3.70;1.13;;;12.10;99.90;;;;;;5223872;28;20206;-49
2022/11/10 03:07:04;;;;;;;6.33;2.27;;;12.10;99.90;;;;;;5224423;28;20187;-48
2022/11/10 03:09:34;;;;;;;10.30;2.30;;;12.10;99.90;;;;;;5219976;28;20187;-49
2022/11/10 03:12:05;;;;;;;3.20;1.47;;;12.10;99.90;;;;;;5218589;28;20281;-48
2022/11/10 03:14:36;;;;;;;1.73;1.03;;;12.10;99.90;;;;;;5208495;28;20219;-50
2022/11/10 03:17:06;;;;;;;4.80;1.40;;;12.10;99.90;;;;;;5216317;28;20183;-48
2022/11/10 03:19:37;;;;;;;3.30;1.80;;;12.10;99.90;;;;;;5218340;28;20190;-48
2022/11/10 03:22:07;;;;;;;6.20;2.03;;;12.00;99.90;;;;;;5208956;28;20187;-49
2022/11/10 03:24:38;;;;;;;6.80;2.00;;;12.10;99.90;;;;;;5191578;28;20221;-48
2022/11/10 03:27:09;;;;;;;4.57;1.80;;;12.10;99.90;;;;;;5220940;28;20195;-48
2022/11/10 03:29:39;;;;;;;4.00;1.90;;;12.10;99.90;;;;;;5213246;28;20543;-48
2022/11/10 03:32:10;;;;;;;4.83;1.87;;;12.10;99.90;;;;;;5205122;28;20191;-48
2022/11/10 03:34:40;;;;;;;13.50;2.00;;;12.10;99.90;;;;;;5221973;28;20211;-50
2022/11/10 03:37:11;;;;;;;3.60;1.10;;;12.10;99.90;;;;;;5208568;28;20278;-49
2022/11/10 03:39:42;;;;;;;2.07;1.33;;;11.90;99.90;;;;;;5224839;28;20276;-49
2022/11/10 03:42:12;;;;;;;3.63;1.50;;;11.90;99.90;;;;;;5204330;28;20598;-49
2022/11/10 03:44:43;;;;;;;7.73;1.90;;;11.90;99.90;;;;;;5206162;28;20340;-48
2022/11/10 03:47:14;;;;;;;9.00;2.20;;;11.80;99.90;;;;;;5223107;28;20508;-49
2022/11/10 03:49:44;;;;;;;4.53;1.57;;;11.70;99.90;;;;;;5209184;28;20676;-49
2022/11/10 03:52:15;;;;;;;6.27;1.50;;;11.70;99.90;;;;;;5203642;28;20277;-48
2022/11/10 03:54:46;;;;;;;1.60;1.50;;;11.60;99.90;;;;;;5208674;28;20678;-50
2022/11/10 03:57:17;;;;;;;1.77;1.40;;;11.60;99.90;;;;;;5200545;28;20437;-48
2022/11/10 03:59:47;;;;;;;7.07;2.10;;;11.60;99.90;;;;;;5188824;28;20180;-50
2022/11/10 04:02:18;;;;;;;1.70;1.33;;;11.60;99.90;;;;;;5221648;28;20180;-48
2022/11/10 04:10:26;;;;;;;1.33;1.10;;;11.40;99.90;;;;;;5217239;28;20412;-48
2022/11/10 04:15:46;;;;;;;4.57;1.70;;;11.30;99.90;;;;;;5254106;23;20228;-50
2022/11/10 04:18:20;;;;;;;4.27;1.70;;;11.30;99.90;;;;;;5246201;28;20498;-51
2022/11/10 04:20:54;;;;;;;7.93;2.13;;;11.30;99.90;;;;;;5228913;28;20837;-52
2022/11/10 04:23:28;;;;;;;3.20;1.60;;;11.30;99.90;;;;;;5242567;28;20423;-51
2022/11/10 04:28:59;;;;;;;1.90;0.97;;;11.40;99.90;;;;;;5227594;28;20774;-52
2022/11/10 04:31:31;;;;;;;9.83;1.93;;;11.30;99.90;;;;;;5208929;28;20521;-50
2022/11/10 04:34:07;;;;;;;12.23;2.40;;;11.30;99.90;;;;;;5220063;28;20516;-52
2022/11/10 04:36:39;;;;;;;2.87;1.90;;;11.20;99.90;;;;;;5209085;28;20437;-51
2022/11/10 04:39:10;;;;;;;10.70;1.77;;;11.20;99.90;;;;;;5227800;28;20429;-51
2022/11/10 04:41:41;;;;;;;5.37;2.40;;;11.10;99.90;;;;;;5227839;28;20436;-52
2022/11/10 04:44:12;;;;;;;3.27;2.00;;;11.00;99.90;;;;;;5226951;28;20226;-50
2022/11/10 04:46:43;;;;;;;14.63;2.80;;;11.00;99.90;;;;;;5230470;28;20658;-51
2022/11/10 04:49:14;;;;;;;6.37;2.30;;;11.00;99.90;;;;;;5211212;28;20236;-51
2022/11/10 04:51:45;;;;;;;3.57;2.07;;;10.90;99.90;;;;;;5211678;28;20445;-51
2022/11/10 04:54:16;;;;;;;2.23;1.83;;;10.80;99.90;;;;;;5208438;28;20215;-51
2022/11/10 04:56:46;;;;;;;5.13;3.60;;;10.70;99.90;;;;;;5226555;28;20524;-52
2022/11/10 04:59:17;;;;;;;7.20;2.20;;;10.70;99.90;;;;;;5208873;28;20186;-52
2022/11/10 05:01:48;;;;;;;11.23;2.53;;;10.70;99.90;;;;;;5219762;28;20313;-49
2022/11/10 05:04:18;;;;;;;6.30;2.03;;;10.70;99.90;;;;;;5227484;28;20199;-51
2022/11/10 05:06:49;;;;;;;9.00;1.87;;;10.70;99.90;;;;;;5217486;28;20295;-51
2022/11/10 05:09:20;;;;;;;10.00;2.70;;;10.60;99.90;;;;;;5208737;28;20190;-51
2022/11/10 05:11:51;;;;;;;4.17;2.07;;;10.50;99.90;;;;;;5218609;28;20185;-51
2022/11/10 05:14:21;;;;;;;8.33;1.90;;;10.50;99.90;;;;;;5226611;28;20257;-52
2022/11/10 05:16:52;;;;;;;2.00;1.80;;;10.40;99.90;;;;;;5229752;28;20209;-52
2022/11/10 05:19:23;;;;;;;5.07;2.20;;;10.40;99.90;;;;;;5211459;28;20183;-52
2022/11/10 05:21:53;;;;;;;4.67;2.17;;;10.30;99.90;;;;;;5209379;28;20210;-52
2022/11/10 05:24:24;;;;;;;4.67;1.60;;;10.30;99.90;;;;;;5224774;28;20206;-53
2022/11/10 05:26:55;;;;;;;4.37;1.93;;;10.20;99.90;;;;;;5199309;28;20265;-51
2022/11/10 05:29:26;;;;;;;9.03;2.70;;;10.20;99.90;;;;;;5217161;28;20187;-50
2022/11/10 05:31:56;;;;;;;3.00;2.07;;;10.10;99.90;;;;;;5194713;28;20174;-50
2022/11/10 05:34:27;;;;;;;10.33;2.47;;;10.00;99.90;;;;;;5191367;28;20239;-52
2022/11/10 05:36:58;;;;;;;6.00;2.30;;;10.00;99.90;;;;;;5202185;28;20190;-51
2022/11/10 05:39:29;;;;;;;7.50;3.10;;;10.00;99.90;;;;;;5206963;28;20179;-51
2022/11/10 05:41:59;;;;;;;4.73;2.10;;;10.00;99.90;;;;;;5224870;28;20182;-52
2022/11/10 05:44:30;;;;;;;3.60;2.20;;;9.90;99.90;;;;;;5199758;28;20222;-53
2022/11/10 05:47:01;;;;;;;5.30;2.53;;;9.90;99.90;;;;;;5202688;28;20666;-50
2022/11/10 05:49:31;;;;;;;5.13;2.70;;;9.90;99.90;;;;;;5211826;28;20210;-49
2022/11/10 05:52:02;;;;;;;5.97;2.40;;;9.90;99.90;;;;;;5226230;28;20242;-49
2022/11/10 05:54:33;;;;;;;2.53;2.00;;;9.90;99.90;;;;;;5224460;28;20210;-49
2022/11/10 05:57:04;;;;;;;14.57;3.00;;;9.90;99.90;;;;;;5222344;28;20797;-49
2022/11/10 05:59:35;;;;;;;3.50;2.37;;;10.00;99.90;;;;;;5231298;28;20301;-47
2022/11/10 06:02:05;;;;;;;6.50;2.23;;;9.90;99.90;;;;;;5209155;28;20175;-53
2022/11/10 06:04:36;;;;;;;3.67;2.33;;;9.90;99.90;;;;;;5223882;28;20214;-47
2022/11/10 06:07:07;;;;;;;8.17;3.10;;;9.90;99.90;;;;;;5211670;28;20608;-49
2022/11/10 06:09:38;;;;;;;4.63;2.00;;;9.90;99.90;;;;;;5213340;28;20322;-48
2022/11/10 06:12:09;;;;;;;4.87;2.53;;;9.90;99.90;;;;;;5207771;28;20187;-48
2022/11/10 06:14:40;;;;;;;8.23;2.73;;;9.90;99.90;;;;;;5208954;28;20717;-51
2022/11/10 06:17:11;;;;;;;10.87;2.73;;;9.90;99.90;;;;;;5212558;28;20526;-52
2022/11/10 06:19:41;;;;;;;4.10;2.40;;;9.90;99.90;;;;;;5227715;28;20199;-48
2022/11/10 06:22:13;;;;;;;9.70;2.70;;;9.90;99.90;;;;;;5212016;28;20495;-47
2022/11/10 06:24:43;;;;;;;7.17;2.97;;;9.90;99.90;;;;;;5236015;28;20208;-48
2022/11/10 06:27:14;;;;;;;4.37;2.07;;;9.70;99.90;;;;;;5213829;28;20532;-47
2022/11/10 06:29:45;;;;;;;4.33;2.53;;;9.90;99.90;;;;;;5211729;28;20266;-47
2022/11/10 06:32:16;;;;;;;18.07;2.97;;;9.90;99.90;;;;;;5229755;28;20214;-50
2022/11/10 06:34:47;;;;;;;7.70;2.60;;;9.80;99.90;;;;;;5193513;28;20219;-46
2022/11/10 06:37:18;;;;;;;7.90;3.23;;;9.80;99.90;;;;;;5212364;28;20189;-48
2022/11/10 06:39:49;;;;;;;8.23;3.03;;;9.90;99.90;;;;;;5211697;28;20434;-47
2022/11/10 06:42:20;;;;;;;11.60;2.70;;;9.90;99.90;;;;;;5208117;28;20430;-53
2022/11/10 06:44:51;;;;;;;11.80;2.93;;;10.00;99.90;;;;;;5183550;28;20706;-48
2022/11/10 06:47:22;;;;;;;10.40;2.93;;;10.00;99.90;;;;;;5222088;28;20184;-49
2022/11/10 06:49:53;;;;;;;8.23;2.90;;;10.00;99.90;;;;;;5208974;28;20678;-49
2022/11/10 06:52:24;;;;;;;7.10;2.90;;;10.10;99.90;;;;;;5223926;28;20773;-46
2022/11/10 06:54:54;;;;;;;15.17;2.70;;;10.10;99.90;;;;;;5210759;28;20214;-49
2022/11/10 06:57:25;;;;;;;6.73;2.77;;;10.20;99.90;;;;;;5186447;28;20187;-47
2022/11/10 06:59:56;;;;;;;4.53;2.70;;;10.10;99.90;;;;;;5207982;28;20198;-48
2022/11/10 07:02:27;;;;;;;12.17;2.60;;;10.20;99.90;;;;;;5223493;28;20413;-47
2022/11/10 07:04:57;;;;;;;7.27;2.47;;;10.30;99.90;;;;;;5208278;28;20234;-47
2022/11/10 07:07:28;;;;;;;3.50;2.50;;;10.40;99.90;;;;;;5201023;28;20270;-48
2022/11/10 07:09:59;;;;;;;8.40;2.47;;;10.40;99.90;;;;;;5211357;28;20186;-52
2022/11/10 07:12:30;;;;;;;10.50;3.33;;;10.50;99.90;;;;;;5204904;28;20182;-47
2022/11/10 07:15:01;;;;;;;7.00;2.30;;;10.60;99.90;;;;;;5211583;28;20304;-47
2022/11/10 07:17:31;;;;;;;7.10;2.97;;;10.90;99.90;;;;;;5207395;28;20229;-48
2022/11/10 07:20:03;;;;;;;2.87;2.60;;;11.10;99.90;;;;;;5199825;28;20198;-47
2022/11/10 07:22:33;;;;;;;4.63;2.67;;;11.20;99.90;;;;;;5227315;28;20183;-47
2022/11/10 07:25:05;;;;;;;5.27;2.90;;;11.30;99.90;;;;;;5216868;28;20460;-47
2022/11/10 07:27:36;;;;;;;7.10;3.60;;;11.30;99.90;;;;;;5225129;28;20194;-48
2022/11/10 07:30:08;;;;;;;4.33;2.90;;;11.40;99.90;;;;;;5214439;28;20461;-47
2022/11/10 07:32:39;;;;;;;8.10;3.13;;;11.40;99.90;;;;;;5208953;28;20425;-49
2022/11/10 07:35:09;;;;;;;5.97;2.70;;;11.30;99.90;;;;;;5223483;28;20830;-47
2022/11/10 07:37:40;;;;;;;9.70;4.03;;;11.30;99.90;;;;;;5213756;28;20191;-50
2022/11/10 07:40:11;;;;;;;18.80;3.60;;;11.40;99.90;;;;;;5207060;28;20670;-49
2022/11/10 07:42:42;;;;;;;11.37;3.73;;;11.50;99.90;;;;;;5230372;28;20433;-51
2022/11/10 07:45:13;;;;;;;12.50;3.40;;;11.50;99.90;;;;;;5210075;28;20481;-48
2022/11/10 07:47:44;;;;;;;12.57;3.13;;;11.50;99.90;;;;;;5230115;28;20791;-48
2022/11/10 07:50:15;;;;;;;4.33;2.63;;;11.50;99.90;;;;;;5231659;28;20183;-48
2022/11/10 07:52:46;;;;;;;7.20;2.50;;;11.60;99.90;;;;;;5211847;28;20190;-49
2022/11/10 07:55:17;;;;;;;6.50;2.90;;;11.70;99.90;;;;;;5208130;28;20522;-48
2022/11/10 07:57:47;;;;;;;7.43;2.57;;;11.70;99.90;;;;;;5211363;28;20567;-47
2022/11/10 08:00:18;;;;;;;11.20;3.50;;;11.70;99.90;;;;;;5194948;28;20188;-47
2022/11/10 08:02:51;;;;;;;8.23;1.93;;;11.70;99.90;;;;;;5207517;28;20239;-49
2022/11/10 08:05:21;;;;;;;8.13;3.93;;;11.70;99.90;;;;;;5232648;28;20879;-48
2022/11/10 08:07:52;;;;;;;13.17;3.40;;;11.70;99.90;;;;;;5215208;28;20497;-52
2022/11/10 08:10:23;;;;;;;5.33;3.33;;;11.60;99.90;;;;;;5214596;28;20186;-47
2022/11/10 08:12:57;;;;;;;10.13;2.80;;;11.70;99.90;;;;;;5208193;28;20190;-49
2022/11/10 08:15:29;;;;;;;6.83;3.50;;;11.70;99.90;;;;;;5213965;28;20222;-51
2022/11/10 08:18:17;;;;;;;3.87;3.37;;;11.70;99.90;;;;;;5228053;28;20443;-47
2022/11/10 08:20:48;;;;;;;14.50;3.70;;;11.70;99.90;;;;;;5230894;28;20413;-48
2022/11/10 08:23:19;;;;;;;11.07;3.60;;;11.80;99.90;;;;;;5207509;28;20930;-48
2022/11/10 08:25:52;;;;;;;13.07;4.17;;;11.80;99.90;;;;;;5216501;28;20460;-48
2022/11/10 08:28:23;;;;;;;12.60;3.17;;;11.80;99.90;;;;;;5214613;28;20689;-48
2022/11/10 08:30:54;;;;;;;6.93;3.00;;;11.80;99.90;;;;;;5224007;28;20438;-48
2022/11/10 08:33:24;;;;;;;9.40;3.77;;;11.80;99.90;;;;;;5210770;28;20241;-48
2022/11/10 08:35:55;;;;;;;5.43;3.27;;;11.90;99.90;;;;;;5225878;28;21194;-48
2022/11/10 08:38:26;;;;;;;11.00;3.47;;;11.90;99.90;;;;;;5204240;28;20199;-49
2022/11/10 08:40:56;;;;;;;10.80;3.27;;;12.00;99.90;;;;;;5211909;28;20671;-49
2022/11/10 08:43:27;;;;;;;16.50;4.40;;;12.20;99.90;;;;;;5217086;28;20274;-49
2022/11/10 08:46:00;;;;;;;10.03;4.00;;;12.20;99.90;;;;;;5226411;28;20207;-47
2022/11/10 08:48:31;;;;;;;8.63;3.30;;;12.20;99.90;;;;;;5217050;28;20175;-50
2022/11/10 08:51:02;;;;;;;12.10;3.63;;;12.30;99.90;;;;;;5218375;28;20537;-49
2022/11/10 08:53:32;;;;;;;13.83;3.80;;;12.50;99.90;;;;;;5206183;28;20229;-47
2022/11/10 08:56:03;;;;;;;7.03;3.30;;;12.60;99.90;;;;;;5226785;28;20273;-47
2022/11/10 08:58:36;;;;;;;7.83;2.97;;;12.60;99.90;;;;;;5211857;28;20187;-49
2022/11/10 09:01:08;;;;;;;8.17;4.13;;;12.60;99.90;;;;;;5201080;28;20184;-48
2022/11/10 09:03:39;;;;;;;6.00;3.57;;;12.60;99.90;;;;;;5199828;28;20515;-48
2022/11/10 09:06:10;;;;;;;17.03;4.70;;;12.70;99.90;;;;;;5199454;28;21013;-47
2022/11/10 09:08:41;;;;;;;10.23;3.57;;;12.80;99.90;;;;;;5201901;28;20311;-51
2022/11/10 09:11:11;;;;;;;10.90;3.80;;;12.90;99.90;;;;;;5221265;28;20234;-48
2022/11/10 09:13:42;;;;;;;10.83;3.67;;;12.90;99.90;;;;;;5212394;28;20214;-48
2022/11/10 09:16:13;;;;;;;9.10;2.87;;;12.90;99.90;;;;;;5202651;28;20750;-47
2022/11/10 09:18:44;;;;;;;7.90;3.20;;;13.10;99.90;;;;;;5200605;28;20180;-48
2022/11/10 09:21:15;;;;;;;12.40;4.10;;;13.30;99.90;;;;;;5200924;28;20445;-47
2022/11/10 09:23:46;;;;;;;12.43;3.30;;;13.20;99.90;;;;;;5210371;28;20190;-50
2022/11/10 09:26:17;;;;;;;7.57;3.87;;;13.30;99.90;;;;;;5200657;28;20667;-47
2022/11/10 09:28:49;;;;;;;11.23;2.80;;;13.20;99.90;;;;;;5217415;28;20499;-49
2022/11/10 09:31:20;;;;;;;10.13;3.67;;;13.10;99.90;;;;;;5205232;28;20206;-52
2022/11/10 09:33:50;;;;;;;12.07;3.90;;;13.00;99.90;;;;;;5216425;28;20852;-47
2022/11/10 09:36:21;;;;;;;9.40;3.17;;;13.00;99.90;;;;;;5215433;28;20207;-47
2022/11/10 09:38:55;;;;;;;5.03;3.30;;;13.00;99.90;;;;;;5204430;28;20178;-49
2022/11/10 09:41:28;;;;;;;5.10;3.60;;;13.00;99.90;;;;;;5211528;28;20589;-48
2022/11/10 09:44:25;;;;;;;9.27;3.17;;;13.10;99.90;;;;;;5203187;28;20557;-47
2022/11/10 09:47:04;;;;;;;5.67;2.93;;;13.00;99.90;;;;;;5225601;28;20434;-47
2022/11/10 09:49:48;;;;;;;9.63;3.33;;;13.00;99.90;;;;;;5207630;28;20441;-52
2022/11/10 09:52:22;;;;;;;12.70;3.47;;;13.00;99.90;;;;;;5221605;28;20429;-48
2022/11/10 09:55:12;;;;;;;5.53;2.93;;;12.90;99.90;;;;;;5206679;28;20469;-49
2022/11/10 09:57:43;;;;;;;8.30;3.77;;;13.00;99.90;;;;;;5197495;28;20541;-49
2022/11/10 10:00:15;;;;;;;9.67;3.17;;;12.90;99.90;;;;;;5206086;28;20884;-53
2022/11/10 10:02:57;;;;;;;10.57;3.73;;;13.00;99.90;;;;;;5198345;28;20466;-48
2022/11/10 10:05:34;;;;;;;14.47;3.23;;;13.00;99.90;;;;;;5211707;28;20475;-49
2022/11/10 10:08:10;;;;;;;6.10;2.77;;;13.10;99.90;;;;;;5219653;28;20469;-52
2022/11/10 10:10:48;;;;;;;8.20;3.07;;;13.20;99.90;;;;;;5215251;28;20433;-47
2022/11/10 10:13:38;;;;;;;13.00;3.83;;;13.30;99.90;;;;;;5216584;28;20445;-48
2022/11/10 10:16:18;;;;;;;12.70;3.33;;;13.30;99.90;;;;;;5270075;23;20578;-52
2022/11/10 10:19:30;;;;;;;16.73;6.43;;;13.30;99.90;;;;;;5260964;28;20453;-52
2022/11/10 10:22:18;;;;;;;11.83;4.27;;;13.20;99.90;;;;;;5217635;28;20527;-52
2022/11/10 10:24:52;;;;;;;11.53;4.37;;;13.10;99.90;;;;;;5260620;28;20440;-52
2022/11/10 10:27:25;;;;;;;10.30;3.80;;;13.10;99.90;;;;;;5266348;28;20454;-52
2022/11/10 10:29:56;;;;;;;11.53;3.80;;;13.00;99.90;;;;;;5266019;28;20511;-51
2022/11/10 10:32:27;;;;;;;9.63;3.13;;;13.00;99.90;;;;;;5261934;28;20464;-52
2022/11/10 10:34:58;;;;;;;12.83;4.17;;;13.10;99.90;;;;;;5263513;28;20605;-52
2022/11/10 10:37:42;;;;;;;8.67;3.57;;;13.20;99.90;;;;;;5265691;28;20451;-49
2022/11/10 10:40:18;;;;;;;4.67;2.97;;;13.40;99.90;;;;;;5266291;28;20174;-50
2022/11/10 10:42:49;;;;;;;9.47;3.30;;;13.50;99.90;;;;;;5264150;28;20907;-52
2022/11/10 10:45:22;;;;;;;13.77;3.60;;;13.70;99.90;;;;;;5262366;28;20545;-50
2022/11/10 10:47:55;;;;;;;7.10;3.10;;;13.90;99.90;;;;;;5266720;28;20953;-51
2022/11/10 10:50:34;;;;;;;5.20;3.50;;;14.10;99.90;;;;;;5263643;28;20887;-54
2022/11/10 10:53:13;;;;;;;4.47;2.37;;;14.30;99.90;;;;;;5266189;28;20435;-50
2022/11/10 10:56:01;;;;;;;13.30;3.10;;;14.40;99.90;;;;;;5265039;28;20471;-52
2022/11/10 10:58:35;;;;;;;9.13;3.13;;;14.60;99.90;;;;;;5258340;28;20466;-51
2022/11/10 11:01:15;;;;;;;7.67;2.60;;;14.60;99.90;;;;;;5261424;28;20982;-54
2022/11/10 11:03:51;;;;;;;6.03;3.53;;;14.50;99.90;;;;;;5263118;28;20427;-51
2022/11/10 11:06:33;;;;;;;6.47;2.60;;;14.50;99.90;;;;;;5264038;28;20447;-51
2022/11/10 11:09:14;;;;;;;7.50;4.03;;;14.50;99.90;;;;;;5266638;28;20461;-52
2022/11/10 11:12:00;;;;;;;29.03;7.90;;;14.50;99.90;;;;;;5265034;28;20454;-51
2022/11/10 11:14:31;;;;;;;15.27;4.30;;;14.40;99.90;;;;;;5261820;28;20543;-52
2022/11/10 11:17:20;;;;;;;12.63;3.50;;;14.50;99.90;;;;;;5261230;28;20438;-48
2022/11/10 11:19:51;;;;;;;7.13;3.10;;;14.50;99.90;;;;;;5267532;28;20485;-48
2022/11/10 11:22:27;;;;;;;23.37;9.53;;;14.60;99.90;;;;;;5257219;28;20916;-49
2022/11/10 11:25:25;;;;;;;11.60;5.70;;;14.60;99.90;;;;;;5257431;28;20201;-49
2022/11/10 11:28:02;;;;;;;13.37;3.30;;;14.60;99.90;;;;;;5267563;28;20431;-49
2022/11/10 11:30:55;;;;;;;10.80;3.30;;;14.60;99.90;;;;;;5264544;28;20443;-49
2022/11/10 11:34:01;;;;;;;5.67;2.90;;;14.40;99.90;;;;;;5262366;28;20886;-48
2022/11/10 11:36:34;;;;;;;12.50;3.57;;;14.20;99.90;;;;;;5261577;28;20440;-50
2022/11/10 11:39:30;;;;;;;7.20;3.70;;;14.00;99.90;;;;;;5268782;28;20438;-50
2022/11/10 11:42:31;;;;;;;14.87;2.93;;;13.90;99.90;;;;;;5261514;28;20423;-48
2022/11/10 11:45:17;;;;;;;6.63;2.90;;;13.90;99.90;;;;;;5246126;28;20487;-48
2022/11/10 11:48:04;;;;;;;5.73;3.00;;;14.00;99.90;;;;;;5266191;28;20481;-49
2022/11/10 11:50:58;;;;;;;15.83;4.40;;;14.10;99.90;;;;;;5264391;28;20514;-49
2022/11/10 11:53:43;;;;;;;21.57;8.83;;;14.20;99.90;;;;;;5260694;28;20420;-48
2022/11/10 11:56:17;;;;;;;8.23;3.90;;;14.30;99.90;;;;;;5261549;28;20467;-48
2022/11/10 11:59:01;;;;;;;4.60;3.27;;;14.40;99.90;;;;;;5264041;28;20432;-48
2022/11/10 12:01:54;;;;;;;6.93;3.80;;;14.60;99.90;;;;;;5258627;28;20435;-50
2022/11/10 12:04:33;;;;;;;22.67;3.30;;;14.80;99.90;;;;;;5264715;28;20542;-49
2022/11/10 12:07:20;;;;;;;15.63;7.53;;;15.00;99.90;;;;;;5260430;28;20470;-49
2022/11/10 12:10:15;;;;;;;19.43;5.20;;;14.90;99.90;;;;;;5264072;28;20435;-47
2022/11/10 12:13:07;;;;;;;11.60;3.20;;;14.70;99.90;;;;;;5219927;28;20799;-49
2022/11/10 12:16:17;;;;;;;14.63;7.37;;;14.40;99.90;;;;;;5263155;28;20538;-49
2022/11/10 12:18:55;;;;;;;6.53;3.20;;;14.30;99.90;;;;;;5260765;28;20859;-49
2022/11/10 12:21:33;;;;;;;10.20;2.80;;;14.20;99.90;;;;;;5260382;28;20799;-52
2022/11/10 12:24:34;;;;;;;15.93;4.67;;;14.20;99.90;;;;;;5261726;28;20423;-52
2022/11/10 12:27:19;;;;;;;9.03;3.00;;;14.30;99.90;;;;;;5263968;28;20419;-51
2022/11/10 12:30:02;;;;;;;8.90;2.67;;;14.30;99.90;;;;;;5263318;28;20431;-50
2022/11/10 12:32:38;;;;;;;4.47;2.60;;;14.30;99.90;;;;;;5262858;28;20432;-49
2022/11/10 12:35:23;;;;;;;4.70;1.93;;;14.40;99.90;;;;;;5263974;28;20830;-56
2022/11/10 12:38:12;;;;;;;10.30;2.90;;;14.50;99.90;;;;;;5262219;28;20431;-50
2022/11/10 12:40:49;;;;;;;12.73;3.07;;;14.60;99.90;;;;;;5258151;28;20439;-49
2022/11/10 12:43:33;;;;;;;8.00;2.83;;;14.70;99.90;;;;;;5258163;28;20789;-47
2022/11/10 12:46:07;;;;;;;21.60;7.53;;;14.70;99.90;;;;;;5266770;28;20466;-49
2022/11/10 12:48:47;;;;;;;21.93;9.47;;;14.80;99.90;;;;;;5265865;28;20439;-48
2022/11/10 12:51:34;;;;;;;14.93;4.77;;;14.80;99.90;;;;;;5269880;28;20419;-47
2022/11/10 12:54:11;;;;;;;7.30;4.60;;;14.80;99.90;;;;;;5267411;28;20435;-49
2022/11/10 12:57:07;;;;;;;8.33;3.17;;;14.90;99.90;;;;;;5267093;28;20443;-49
2022/11/10 12:59:41;;;;;;;9.03;2.53;;;14.80;99.90;;;;;;5268434;28;20449;-48
2022/11/10 13:02:23;;;;;;;8.73;3.00;;;15.00;99.90;;;;;;5251148;28;20431;-47
2022/11/10 13:05:12;;;;;;;7.57;3.07;;;15.10;99.90;;;;;;5264437;28;20451;-49
2022/11/10 13:07:46;;;;;;;9.40;3.13;;;15.10;99.90;;;;;;5258239;28;20436;-48
2022/11/10 13:10:17;;;;;;;30.63;9.10;;;15.10;99.90;;;;;;5264823;28;20436;-48
2022/11/10 13:13:17;;;;;;;9.80;3.83;;;15.10;99.90;;;;;;5255565;28;20451;-49
2022/11/10 13:15:54;;;;;;;9.53;2.00;;;15.00;99.90;;;;;;5254250;28;20218;-49
2022/11/10 13:18:30;;;;;;;5.20;2.10;;;15.00;99.90;;;;;;5261171;28;20422;-51
2022/11/10 13:21:01;;;;;;;7.67;2.47;;;15.00;99.90;;;;;;5260171;28;20540;-48
2022/11/10 13:23:39;;;;;;;11.93;2.30;;;15.00;99.90;;;;;;5266789;28;20431;-51
2022/11/10 13:26:30;;;;;;;6.70;2.00;;;15.10;99.90;;;;;;5268494;28;20626;-49
2022/11/10 13:29:02;;;;;;;3.13;1.67;;;15.30;99.90;;;;;;5268025;28;20963;-50
2022/11/10 13:31:32;;;;;;;4.17;2.23;;;15.30;99.90;;;;;;5261386;28;20427;-48
2022/11/10 13:34:03;;;;;;;2.20;2.00;;;15.30;99.90;;;;;;5267852;28;20435;-49
2022/11/10 13:36:44;;;;;;;12.63;2.63;;;15.40;99.90;;;;;;5266916;28;20534;-48